createdAt,value
2016-05-19T00:00:00.976Z,989.73
2016-05-19T00:01:00.995Z,989.71
2016-05-19T00:02:01.028Z,989.66
2016-05-19T00:03:01.031Z,989.69
2016-05-19T00:04:01.049Z,989.68
2016-05-19T00:05:01.067Z,989.64
2016-05-19T00:06:01.086Z,989.61
2016-05-19T00:07:01.103Z,989.63
2016-05-19T00:08:01.122Z,989.62
2016-05-19T00:09:01.156Z,989.62
2016-05-19T00:10:01.175Z,989.6
2016-05-19T00:11:01.193Z,989.63
2016-05-19T00:12:01.211Z,989.66
2016-05-19T00:13:01.230Z,989.6
2016-05-19T00:14:01.248Z,989.59
2016-05-19T00:15:01.267Z,989.56
2016-05-19T00:16:01.285Z,989.56
2016-05-19T00:17:01.303Z,989.57
2016-05-19T00:18:01.322Z,989.56
2016-05-19T00:19:01.339Z,989.6
2016-05-19T00:20:01.358Z,989.56
2016-05-19T00:21:01.376Z,989.58
2016-05-19T00:22:01.394Z,989.57
2016-05-19T00:23:01.413Z,989.55
2016-05-19T00:24:01.431Z,989.54
2016-05-19T00:25:01.450Z,989.55
2016-05-19T00:26:01.468Z,989.55
2016-05-19T00:27:01.485Z,989.57
2016-05-19T00:28:01.504Z,989.54
2016-05-19T00:29:01.523Z,989.53
2016-05-19T00:30:01.557Z,989.52
2016-05-19T00:31:01.559Z,989.49
2016-05-19T00:32:01.578Z,989.46
2016-05-19T00:33:01.626Z,989.47
2016-05-19T00:34:01.614Z,989.48
2016-05-19T00:35:01.648Z,989.49
2016-05-19T00:36:01.667Z,989.49
2016-05-19T00:37:01.685Z,989.45
2016-05-19T00:38:01.703Z,989.47
2016-05-19T00:39:01.722Z,989.45
2016-05-19T00:40:01.740Z,989.45
2016-05-19T00:41:01.742Z,989.41
2016-05-19T00:42:01.776Z,989.39
2016-05-19T00:43:01.779Z,989.4
2016-05-19T00:44:01.813Z,989.39
2016-05-19T00:45:01.816Z,989.33
2016-05-19T00:46:01.850Z,989.35
2016-05-19T00:47:01.868Z,989.3
2016-05-19T00:48:01.886Z,989.32
2016-05-19T00:49:01.889Z,989.3
2016-05-19T00:50:01.922Z,989.29
2016-05-19T00:51:01.941Z,989.34
2016-05-19T00:52:01.960Z,989.3
2016-05-19T00:53:02.462Z,989.32
2016-05-19T00:54:01.996Z,989.31
2016-05-19T00:55:02.015Z,989.3
2016-05-19T00:56:02.033Z,989.27
2016-05-19T00:57:02.052Z,989.24
2016-05-19T00:58:02.069Z,989.22
2016-05-19T00:59:02.087Z,989.2
2016-05-19T01:00:02.107Z,989.18
2016-05-19T01:01:02.124Z,989.16
2016-05-19T01:02:02.142Z,989.17
2016-05-19T01:03:02.161Z,989.14
2016-05-19T01:04:02.179Z,989.19
2016-05-19T01:05:02.198Z,989.14
2016-05-19T01:06:02.216Z,989.12
2016-05-19T01:07:02.234Z,989.09
2016-05-19T01:08:02.253Z,989.1
2016-05-19T01:09:02.271Z,989.11
2016-05-19T01:10:02.289Z,989.12
2016-05-19T01:11:02.308Z,989.09
2016-05-19T01:12:02.341Z,989.1
2016-05-19T01:13:02.344Z,989.1
2016-05-19T01:14:02.362Z,989.08
2016-05-19T01:15:02.381Z,989.08
2016-05-19T01:16:02.399Z,989.11
2016-05-19T01:17:02.417Z,989.09
2016-05-19T01:18:02.436Z,989.07
2016-05-19T01:19:02.455Z,989.08
2016-05-19T01:20:02.472Z,989.05
2016-05-19T01:21:02.490Z,989.08
2016-05-19T01:22:02.509Z,989.04
2016-05-19T01:23:02.528Z,989.09
2016-05-19T01:24:02.546Z,989.11
2016-05-19T01:25:02.563Z,989.1
2016-05-19T01:26:02.582Z,989.12
2016-05-19T01:27:02.601Z,989.15
2016-05-19T01:28:02.619Z,989.12
2016-05-19T01:29:02.637Z,989.14
2016-05-19T01:30:02.655Z,989.18
2016-05-19T01:31:02.674Z,989.18
2016-05-19T01:32:02.692Z,989.2
2016-05-19T01:33:02.710Z,989.18
2016-05-19T01:34:02.729Z,989.19
2016-05-19T01:35:02.747Z,989.19
2016-05-19T01:36:02.765Z,989.22
2016-05-19T01:37:02.784Z,989.2
2016-05-19T01:38:02.817Z,989.24
2016-05-19T01:39:02.821Z,989.21
2016-05-19T01:40:02.822Z,989.2
2016-05-19T01:41:02.856Z,989.2
2016-05-19T01:42:02.875Z,989.22
2016-05-19T01:43:02.894Z,989.26
2016-05-19T01:44:02.897Z,989.25
2016-05-19T01:45:02.931Z,989.24
2016-05-19T01:46:02.933Z,989.25
2016-05-19T01:47:02.967Z,989.26
2016-05-19T01:48:02.985Z,989.27
2016-05-19T01:49:03.003Z,989.23
2016-05-19T01:50:03.022Z,989.29
2016-05-19T01:51:03.041Z,989.21
2016-05-19T01:52:03.058Z,989.28
2016-05-19T01:53:03.077Z,989.24
2016-05-19T01:54:03.095Z,989.2
2016-05-19T01:55:03.097Z,989.21
2016-05-19T01:56:03.132Z,989.2
2016-05-19T01:57:03.150Z,989.16
2016-05-19T01:58:03.168Z,989.19
2016-05-19T01:59:03.187Z,989.18
2016-05-19T02:00:03.190Z,989.16
2016-05-19T02:01:03.223Z,989.18
2016-05-19T02:02:03.241Z,989.14
2016-05-19T02:03:03.259Z,989.16
2016-05-19T02:04:03.262Z,989.13
2016-05-19T02:05:03.297Z,989.19
2016-05-19T02:06:03.315Z,989.16
2016-05-19T02:07:03.333Z,989.18
2016-05-19T02:08:03.351Z,989.2
2016-05-19T02:09:03.370Z,989.2
2016-05-19T02:10:03.388Z,989.22
2016-05-19T02:11:03.407Z,989.2
2016-05-19T02:12:03.425Z,989.21
2016-05-19T02:13:03.443Z,989.18
2016-05-19T02:14:03.462Z,989.22
2016-05-19T02:15:03.480Z,989.23
2016-05-19T02:16:03.498Z,989.22
2016-05-19T02:17:03.500Z,989.21
2016-05-19T02:18:03.534Z,989.19
2016-05-19T02:19:03.553Z,989.22
2016-05-19T02:20:03.571Z,989.2
2016-05-19T02:21:03.589Z,989.18
2016-05-19T02:22:03.608Z,989.21
2016-05-19T02:23:03.626Z,989.19
2016-05-19T02:24:03.644Z,989.17
2016-05-19T02:25:03.686Z,989.2
2016-05-19T02:26:03.674Z,989.17
2016-05-19T02:27:03.707Z,989.21
2016-05-19T02:28:03.710Z,989.14
2016-05-19T02:29:03.728Z,989.17
2016-05-19T02:30:03.763Z,989.14
2016-05-19T02:31:03.765Z,989.16
2016-05-19T02:32:03.783Z,989.18
2016-05-19T02:33:03.801Z,989.17
2016-05-19T02:34:03.820Z,989.21
2016-05-19T02:35:03.838Z,989.23
2016-05-19T02:36:03.904Z,989.2
2016-05-19T02:37:03.874Z,989.17
2016-05-19T02:38:03.940Z,989.18
2016-05-19T02:39:03.974Z,989.2
2016-05-19T02:40:03.929Z,989.2
2016-05-19T02:41:03.976Z,989.18
2016-05-19T02:42:04.038Z,989.22
2016-05-19T02:43:04.099Z,989.18
2016-05-19T02:44:04.162Z,989.19
2016-05-19T02:45:04.239Z,989.19
2016-05-19T02:46:04.266Z,989.22
2016-05-19T02:47:04.301Z,989.18
2016-05-19T02:48:04.333Z,989.23
2016-05-19T02:49:04.384Z,989.2
2016-05-19T02:50:04.402Z,989.22
2016-05-19T02:51:04.444Z,989.23
2016-05-19T02:52:04.453Z,989.23
2016-05-19T02:53:04.962Z,989.22
2016-05-19T02:54:04.500Z,989.21
2016-05-19T02:55:04.525Z,989.24
2016-05-19T02:56:04.546Z,989.21
2016-05-19T02:57:04.567Z,989.23
2016-05-19T02:58:04.587Z,989.24
2016-05-19T02:59:04.607Z,989.22
2016-05-19T03:00:04.628Z,989.22
2016-05-19T03:01:04.647Z,989.2
2016-05-19T03:02:04.666Z,989.27
2016-05-19T03:03:04.685Z,989.26
2016-05-19T03:04:04.720Z,989.27
2016-05-19T03:05:04.723Z,989.24
2016-05-19T03:06:04.743Z,989.24
2016-05-19T03:07:04.761Z,989.22
2016-05-19T03:08:04.779Z,989.23
2016-05-19T03:09:04.798Z,989.27
2016-05-19T03:10:04.816Z,989.28
2016-05-19T03:11:04.835Z,989.28
2016-05-19T03:12:04.853Z,989.27
2016-05-19T03:13:04.888Z,989.3
2016-05-19T03:14:04.891Z,989.26
2016-05-19T03:15:04.925Z,989.27
2016-05-19T03:16:04.927Z,989.33
2016-05-19T03:17:04.945Z,989.33
2016-05-19T03:18:04.964Z,989.33
2016-05-19T03:19:04.997Z,989.33
2016-05-19T03:20:05.000Z,989.35
2016-05-19T03:21:05.019Z,989.37
2016-05-19T03:22:05.037Z,989.41
2016-05-19T03:23:05.055Z,989.37
2016-05-19T03:24:05.073Z,989.34
2016-05-19T03:25:05.091Z,989.39
2016-05-19T03:26:05.110Z,989.37
2016-05-19T03:27:05.128Z,989.37
2016-05-19T03:28:05.146Z,989.43
2016-05-19T03:29:05.165Z,989.41
2016-05-19T03:30:05.184Z,989.44
2016-05-19T03:31:05.201Z,989.46
2016-05-19T03:32:05.235Z,989.43
2016-05-19T03:33:05.238Z,989.45
2016-05-19T03:34:05.257Z,989.47
2016-05-19T03:35:05.276Z,989.47
2016-05-19T03:36:05.293Z,989.44
2016-05-19T03:37:05.312Z,989.48
2016-05-19T03:38:05.330Z,989.49
2016-05-19T03:39:05.347Z,989.5
2016-05-19T03:40:05.367Z,989.45
2016-05-19T03:41:05.384Z,989.47
2016-05-19T03:42:05.403Z,989.49
2016-05-19T03:43:05.421Z,989.5
2016-05-19T03:44:05.439Z,989.49
2016-05-19T03:45:05.458Z,989.5
2016-05-19T03:46:05.476Z,989.52
2016-05-19T03:47:05.494Z,989.48
2016-05-19T03:48:05.513Z,989.5
2016-05-19T03:49:05.531Z,989.45
2016-05-19T03:50:05.550Z,989.51
2016-05-19T03:51:05.583Z,989.53
2016-05-19T03:52:05.586Z,989.55
2016-05-19T03:53:05.605Z,989.55
2016-05-19T03:54:05.639Z,989.52
2016-05-19T03:55:05.641Z,989.54
2016-05-19T03:56:05.660Z,989.53
2016-05-19T03:57:05.677Z,989.54
2016-05-19T03:58:05.696Z,989.53
2016-05-19T03:59:05.715Z,989.57
2016-05-19T04:00:05.732Z,989.57
2016-05-19T04:01:05.751Z,989.55
2016-05-19T04:02:05.769Z,989.57
2016-05-19T04:03:05.787Z,989.56
2016-05-19T04:04:05.806Z,989.57
2016-05-19T04:05:05.824Z,989.56
2016-05-19T04:06:05.842Z,989.59
2016-05-19T04:07:05.845Z,989.59
2016-05-19T04:08:05.879Z,989.58
2016-05-19T04:09:05.898Z,989.64
2016-05-19T04:10:05.901Z,989.63
2016-05-19T04:11:05.934Z,989.6
2016-05-19T04:12:05.937Z,989.63
2016-05-19T04:13:05.971Z,989.68
2016-05-19T04:14:05.989Z,989.64
2016-05-19T04:15:05.991Z,989.69
2016-05-19T04:16:06.025Z,989.71
2016-05-19T04:17:06.044Z,989.73
2016-05-19T04:18:06.047Z,989.72
2016-05-19T04:19:06.080Z,989.73
2016-05-19T04:20:06.099Z,989.74
2016-05-19T04:21:06.116Z,989.71
2016-05-19T04:22:06.135Z,989.71
2016-05-19T04:23:06.154Z,989.73
2016-05-19T04:24:06.157Z,989.76
2016-05-19T04:25:06.175Z,989.75
2016-05-19T04:26:06.209Z,989.76
2016-05-19T04:27:06.212Z,989.79
2016-05-19T04:28:06.246Z,989.82
2016-05-19T04:29:06.249Z,989.81
2016-05-19T04:30:06.282Z,989.84
2016-05-19T04:31:06.285Z,989.83
2016-05-19T04:32:06.304Z,989.88
2016-05-19T04:33:06.321Z,989.89
2016-05-19T04:34:06.340Z,989.95
2016-05-19T04:35:06.373Z,989.96
2016-05-19T04:36:06.392Z,989.97
2016-05-19T04:37:06.395Z,990.03
2016-05-19T04:38:06.412Z,990.01
2016-05-19T04:39:06.432Z,990.03
2016-05-19T04:40:06.450Z,990.02
2016-05-19T04:41:06.483Z,990.07
2016-05-19T04:42:06.487Z,990.05
2016-05-19T04:43:06.505Z,990.07
2016-05-19T04:44:06.523Z,990.06
2016-05-19T04:45:06.541Z,990.04
2016-05-19T04:46:06.575Z,990.07
2016-05-19T04:47:06.593Z,990.1
2016-05-19T04:48:06.597Z,990.11
2016-05-19T04:49:06.614Z,990.1
2016-05-19T04:50:06.633Z,990.1
2016-05-19T04:51:06.652Z,990.17
2016-05-19T04:52:06.669Z,990.15
2016-05-19T04:53:06.688Z,990.21
2016-05-19T04:54:06.705Z,990.22
2016-05-19T04:55:06.741Z,990.22
2016-05-19T04:56:06.743Z,990.21
2016-05-19T04:57:06.760Z,990.23
2016-05-19T04:58:06.780Z,990.24
2016-05-19T04:59:06.798Z,990.22
2016-05-19T05:00:06.816Z,990.24
2016-05-19T05:01:06.850Z,990.23
2016-05-19T05:02:06.868Z,990.28
2016-05-19T05:03:06.871Z,990.3
2016-05-19T05:04:06.889Z,990.33
2016-05-19T05:05:06.923Z,990.28
2016-05-19T05:06:06.926Z,990.32
2016-05-19T05:07:06.960Z,990.34
2016-05-19T05:08:06.978Z,990.34
2016-05-19T05:09:06.996Z,990.41
2016-05-19T05:10:06.999Z,990.42
2016-05-19T05:11:07.033Z,990.4
2016-05-19T05:12:07.051Z,990.41
2016-05-19T05:13:07.054Z,990.39
2016-05-19T05:14:07.089Z,990.44
2016-05-19T05:15:07.091Z,990.46
2016-05-19T05:16:07.109Z,990.45
2016-05-19T05:17:07.128Z,990.46
2016-05-19T05:18:07.145Z,990.48
2016-05-19T05:19:07.164Z,990.46
2016-05-19T05:20:07.183Z,990.48
2016-05-19T05:21:07.216Z,990.45
2016-05-19T05:22:07.235Z,990.5
2016-05-19T05:23:07.252Z,990.47
2016-05-19T05:24:07.271Z,990.46
2016-05-19T05:25:07.290Z,990.46
2016-05-19T05:26:07.308Z,990.48
2016-05-19T05:27:07.326Z,990.47
2016-05-19T05:28:07.344Z,990.52
2016-05-19T05:29:07.363Z,990.53
2016-05-19T05:30:07.413Z,990.6
2016-05-19T05:31:07.399Z,990.63
2016-05-19T05:32:07.418Z,990.65
2016-05-19T05:33:07.436Z,990.65
2016-05-19T05:34:07.454Z,990.61
2016-05-19T05:35:07.473Z,990.63
2016-05-19T05:36:07.491Z,990.67
2016-05-19T05:37:07.509Z,990.62
2016-05-19T05:38:07.543Z,990.65
2016-05-19T05:39:07.546Z,990.68
2016-05-19T05:40:07.565Z,990.69
2016-05-19T05:41:07.582Z,990.72
2016-05-19T05:42:07.601Z,990.72
2016-05-19T05:43:07.635Z,990.72
2016-05-19T05:44:07.638Z,990.75
2016-05-19T05:45:07.656Z,990.76
2016-05-19T05:46:07.675Z,990.8
2016-05-19T05:47:07.692Z,990.8
2016-05-19T05:48:07.711Z,990.86
2016-05-19T05:49:07.744Z,990.89
2016-05-19T05:50:07.748Z,990.93
2016-05-19T05:51:07.766Z,990.93
2016-05-19T05:52:07.800Z,990.96
2016-05-19T05:53:07.819Z,990.98
2016-05-19T05:54:07.821Z,990.99
2016-05-19T05:55:07.855Z,991.02
2016-05-19T05:56:07.873Z,991.08
2016-05-19T05:57:07.891Z,991.03
2016-05-19T05:58:07.910Z,991.05
2016-05-19T05:59:07.927Z,991.06
2016-05-19T06:00:07.962Z,991.04
2016-05-19T06:01:07.965Z,991.14
2016-05-19T06:02:07.983Z,991.15
2016-05-19T06:03:08.002Z,991.19
2016-05-19T06:04:08.019Z,991.22
2016-05-19T06:05:08.038Z,991.17
2016-05-19T06:06:08.057Z,991.24
2016-05-19T06:07:08.074Z,991.2
2016-05-19T06:08:08.093Z,991.27
2016-05-19T06:09:08.111Z,991.27
2016-05-19T06:10:08.129Z,991.25
2016-05-19T06:11:08.163Z,991.31
2016-05-19T06:12:08.181Z,991.27
2016-05-19T06:13:08.200Z,991.25
2016-05-19T06:14:08.218Z,991.28
2016-05-19T06:15:08.237Z,991.3
2016-05-19T06:16:08.256Z,991.32
2016-05-19T06:17:08.289Z,991.44
2016-05-19T06:18:08.292Z,991.38
2016-05-19T06:19:08.309Z,991.36
2016-05-19T06:20:08.328Z,991.37
2016-05-19T06:21:08.346Z,991.41
2016-05-19T06:22:08.365Z,991.45
2016-05-19T06:23:08.399Z,991.47
2016-05-19T06:24:08.417Z,991.47
2016-05-19T06:25:08.420Z,991.47
2016-05-19T06:26:08.454Z,991.5
2016-05-19T06:27:08.472Z,991.51
2016-05-19T06:28:08.474Z,991.52
2016-05-19T06:29:08.493Z,991.55
2016-05-19T06:30:08.527Z,991.56
2016-05-19T06:31:08.545Z,991.54
2016-05-19T06:32:08.564Z,991.54
2016-05-19T06:33:08.582Z,991.61
2016-05-19T06:34:08.600Z,991.6
2016-05-19T06:35:08.635Z,991.6
2016-05-19T06:36:08.637Z,991.62
2016-05-19T06:37:08.671Z,991.6
2016-05-19T06:38:08.689Z,991.67
2016-05-19T06:39:08.707Z,991.63
2016-05-19T06:40:08.726Z,991.62
2016-05-19T06:41:08.744Z,991.66
2016-05-19T06:42:08.762Z,991.69
2016-05-19T06:43:08.781Z,991.69
2016-05-19T06:44:08.799Z,991.71
2016-05-19T06:45:08.818Z,991.74
2016-05-19T06:46:08.836Z,991.74
2016-05-19T06:47:08.854Z,991.8
2016-05-19T06:48:08.888Z,991.88
2016-05-19T06:49:08.906Z,991.91
2016-05-19T06:50:08.924Z,991.93
2016-05-19T06:51:08.942Z,991.92
2016-05-19T06:52:08.961Z,992.02
2016-05-19T06:53:09.370Z,992.01
2016-05-19T06:54:09.014Z,992.04
2016-05-19T06:55:09.016Z,992.08
2016-05-19T06:56:09.050Z,992.12
2016-05-19T06:57:09.053Z,992.09
2016-05-19T06:58:09.087Z,992.12
2016-05-19T06:59:09.104Z,992.13
2016-05-19T07:00:09.124Z,992.16
2016-05-19T07:01:09.141Z,992.19
2016-05-19T07:02:09.160Z,992.21
2016-05-19T07:03:09.177Z,992.22
2016-05-19T07:04:09.196Z,992.23
2016-05-19T07:05:09.230Z,992.29
2016-05-19T07:06:09.249Z,992.3
2016-05-19T07:07:09.267Z,992.26
2016-05-19T07:08:09.285Z,992.26
2016-05-19T07:09:09.319Z,992.29
2016-05-19T07:10:09.337Z,992.31
2016-05-19T07:11:09.356Z,992.29
2016-05-19T07:12:09.374Z,992.28
2016-05-19T07:13:09.392Z,992.31
2016-05-19T07:14:09.411Z,992.33
2016-05-19T07:15:09.445Z,992.37
2016-05-19T07:16:09.462Z,992.34
2016-05-19T07:17:09.481Z,992.44
2016-05-19T07:18:09.500Z,992.44
2016-05-19T07:19:09.518Z,992.46
2016-05-19T07:20:09.536Z,992.54
2016-05-19T07:21:09.555Z,992.52
2016-05-19T07:22:09.589Z,992.5
2016-05-19T07:23:09.606Z,992.5
2016-05-19T07:24:09.625Z,992.5
2016-05-19T07:25:09.644Z,992.5
2016-05-19T07:26:09.662Z,992.6
2016-05-19T07:27:09.680Z,992.53
2016-05-19T07:28:09.714Z,992.58
2016-05-19T07:29:09.733Z,992.57
2016-05-19T07:30:09.751Z,992.58
2016-05-19T07:31:09.769Z,992.61
2016-05-19T07:32:09.803Z,992.6
2016-05-19T07:33:09.821Z,992.71
2016-05-19T07:34:09.840Z,992.71
2016-05-19T07:35:09.858Z,992.76
2016-05-19T07:36:09.877Z,992.69
2016-05-19T07:37:09.910Z,992.7
2016-05-19T07:38:10.054Z,992.7
2016-05-19T07:39:09.946Z,992.8
2016-05-19T07:40:09.965Z,992.73
2016-05-19T07:41:09.984Z,992.66
2016-05-19T07:42:10.001Z,992.68
2016-05-19T07:43:10.020Z,992.66
2016-05-19T07:44:10.054Z,992.67
2016-05-19T07:45:10.072Z,992.66
2016-05-19T07:46:10.091Z,992.65
2016-05-19T07:47:10.109Z,992.65
2016-05-19T07:48:10.127Z,992.67
2016-05-19T07:49:10.146Z,992.71
2016-05-19T07:50:10.165Z,992.72
2016-05-19T07:51:10.198Z,992.78
2016-05-19T07:52:10.217Z,992.66
2016-05-19T07:53:10.281Z,992.67
2016-05-19T07:54:10.253Z,992.69
2016-05-19T07:55:10.286Z,992.68
2016-05-19T07:56:10.305Z,992.71
2016-05-19T07:57:10.323Z,992.76
2016-05-19T07:58:10.342Z,992.81
2016-05-19T07:59:10.360Z,992.85
2016-05-19T08:00:10.394Z,992.9
2016-05-19T08:01:10.413Z,992.89
2016-05-19T08:02:10.430Z,992.88
2016-05-19T08:03:10.464Z,992.94
2016-05-19T08:04:10.466Z,992.97
2016-05-19T08:05:10.501Z,993.05
2016-05-19T08:06:10.519Z,993.01
2016-05-19T08:07:10.538Z,992.97
2016-05-19T08:08:10.557Z,992.99
2016-05-19T08:09:10.575Z,993.03
2016-05-19T08:10:10.608Z,993.04
2016-05-19T08:11:10.627Z,993.05
2016-05-19T08:12:10.645Z,993.05
2016-05-19T08:13:10.663Z,992.99
2016-05-19T08:14:10.682Z,993.06
2016-05-19T08:15:10.700Z,992.99
2016-05-19T08:16:10.734Z,993.04
2016-05-19T08:17:10.752Z,993.03
2016-05-19T08:18:10.771Z,993.08
2016-05-19T08:19:10.789Z,993.1
2016-05-19T08:20:10.823Z,993.15
2016-05-19T08:21:10.887Z,993.09
2016-05-19T08:22:10.875Z,993.12
2016-05-19T08:23:10.925Z,993.12
2016-05-19T08:24:10.942Z,993.11
2016-05-19T08:25:10.977Z,993.09
2016-05-19T08:26:10.979Z,993.17
2016-05-19T08:27:10.982Z,993.19
2016-05-19T08:28:10.985Z,993.16
2016-05-19T08:29:11.003Z,993.17
2016-05-19T08:30:11.022Z,993.19
2016-05-19T08:31:11.055Z,993.17
2016-05-19T08:32:11.074Z,993.23
2016-05-19T08:33:11.092Z,993.23
2016-05-19T08:34:11.110Z,993.21
2016-05-19T08:35:11.130Z,993.23
2016-05-19T08:36:11.147Z,993.26
2016-05-19T08:37:11.166Z,993.32
2016-05-19T08:38:11.199Z,993.36
2016-05-19T08:39:11.218Z,993.39
2016-05-19T08:40:11.235Z,993.32
2016-05-19T08:41:11.270Z,993.36
2016-05-19T08:42:11.288Z,993.39
2016-05-19T08:43:11.307Z,993.4
2016-05-19T08:44:11.325Z,993.39
2016-05-19T08:45:11.343Z,993.38
2016-05-19T08:46:11.377Z,993.38
2016-05-19T08:47:11.395Z,993.36
2016-05-19T08:48:11.414Z,993.32
2016-05-19T08:49:11.431Z,993.33
2016-05-19T08:50:11.450Z,993.34
2016-05-19T08:51:11.468Z,993.35
2016-05-19T08:52:11.487Z,993.33
2016-05-19T08:53:11.520Z,993.36
2016-05-19T08:54:11.773Z,993.33
2016-05-19T08:55:11.651Z,993.38
2016-05-19T08:56:11.576Z,993.43
2016-05-19T08:57:11.594Z,993.5
2016-05-19T08:58:11.612Z,993.57
2016-05-19T08:59:11.630Z,993.55
2016-05-19T09:00:11.664Z,993.59
2016-05-19T09:01:11.683Z,993.59
2016-05-19T09:02:11.702Z,993.69
2016-05-19T09:03:11.720Z,993.7
2016-05-19T09:04:11.738Z,993.69
2016-05-19T09:05:11.772Z,993.73
2016-05-19T09:06:11.775Z,993.72
2016-05-19T09:07:11.808Z,993.69
2016-05-19T09:08:11.842Z,993.7
2016-05-19T09:09:11.845Z,993.69
2016-05-19T09:10:11.863Z,993.75
2016-05-19T09:11:11.897Z,993.75
2016-05-19T09:12:11.931Z,993.79
2016-05-19T09:13:11.935Z,993.86
2016-05-19T09:14:11.968Z,993.89
2016-05-19T09:15:11.970Z,993.94
2016-05-19T09:16:12.005Z,993.97
2016-05-19T09:17:12.023Z,993.95
2016-05-19T09:18:12.041Z,993.93
2016-05-19T09:19:12.059Z,993.93
2016-05-19T09:20:12.094Z,994.03
2016-05-19T09:21:12.096Z,993.98
2016-05-19T09:22:12.130Z,993.98
2016-05-19T09:23:12.148Z,993.95
2016-05-19T09:24:12.307Z,994
2016-05-19T09:25:12.185Z,993.95
2016-05-19T09:26:12.203Z,993.96
2016-05-19T09:27:12.222Z,994
2016-05-19T09:28:12.239Z,994.03
2016-05-19T09:29:12.274Z,994.1
2016-05-19T09:30:12.292Z,994.07
2016-05-19T09:31:12.311Z,994.1
2016-05-19T09:32:12.329Z,994.14
2016-05-19T09:33:12.363Z,994.21
2016-05-19T09:34:12.381Z,994.22
2016-05-19T09:35:12.399Z,994.21
2016-05-19T09:36:12.433Z,994.19
2016-05-19T09:37:12.435Z,994.22
2016-05-19T09:38:12.470Z,994.24
2016-05-19T09:39:12.473Z,994.24
2016-05-19T09:40:12.507Z,994.24
2016-05-19T09:41:12.525Z,994.25
2016-05-19T09:42:12.543Z,994.27
2016-05-19T09:43:12.562Z,994.28
2016-05-19T09:44:12.596Z,994.29
2016-05-19T09:45:12.613Z,994.33
2016-05-19T09:46:12.632Z,994.28
2016-05-19T09:47:12.651Z,994.32
2016-05-19T09:48:12.685Z,994.36
2016-05-19T09:49:12.703Z,994.46
2016-05-19T09:50:12.721Z,994.47
2016-05-19T09:51:12.740Z,994.47
2016-05-19T09:52:12.757Z,994.51
2016-05-19T09:53:12.792Z,994.53
2016-05-19T09:54:12.795Z,994.52
2016-05-19T09:55:12.828Z,994.53
2016-05-19T09:56:12.847Z,994.54
2016-05-19T09:57:12.865Z,994.54
2016-05-19T09:58:12.883Z,994.57
2016-05-19T09:59:12.917Z,994.53
2016-05-19T10:00:12.936Z,994.57
2016-05-19T10:01:12.953Z,994.57
2016-05-19T10:02:12.972Z,994.62
2016-05-19T10:03:12.991Z,994.58
2016-05-19T10:04:13.009Z,994.59
2016-05-19T10:05:13.027Z,994.64
2016-05-19T10:06:13.108Z,994.6
2016-05-19T10:07:13.111Z,994.64
2016-05-19T10:08:13.145Z,994.66
2016-05-19T10:09:13.694Z,994.68
2016-05-19T10:10:13.197Z,994.65
2016-05-19T10:11:13.215Z,994.63
2016-05-19T10:12:13.218Z,994.69
2016-05-19T10:13:13.221Z,994.7
2016-05-19T10:14:13.239Z,994.74
2016-05-19T10:15:13.257Z,994.74
2016-05-19T10:16:13.276Z,994.72
2016-05-19T10:17:13.294Z,994.7
2016-05-19T10:18:13.312Z,994.74
2016-05-19T10:19:13.346Z,994.74
2016-05-19T10:20:13.349Z,994.76
2016-05-19T10:21:13.383Z,994.77
2016-05-19T10:22:13.401Z,994.73
2016-05-19T10:23:13.420Z,994.74
2016-05-19T10:24:13.453Z,994.81
2016-05-19T10:25:13.471Z,994.8
2016-05-19T10:26:13.490Z,994.77
2016-05-19T10:27:13.509Z,994.83
2016-05-19T10:28:13.542Z,994.79
2016-05-19T10:29:13.561Z,994.82
2016-05-19T10:30:13.579Z,994.92
2016-05-19T10:31:13.597Z,994.87
2016-05-19T10:32:13.615Z,994.89
2016-05-19T10:33:13.634Z,994.96
2016-05-19T10:34:13.668Z,994.93
2016-05-19T10:35:13.686Z,994.93
2016-05-19T10:36:13.720Z,995
2016-05-19T10:37:13.738Z,994.98
2016-05-19T10:38:13.756Z,995
2016-05-19T10:39:13.759Z,995.03
2016-05-19T10:40:13.794Z,994.99
2016-05-19T10:41:13.811Z,995.04
2016-05-19T10:42:13.830Z,995.11
2016-05-19T10:43:13.849Z,995.1
2016-05-19T10:44:13.882Z,995.15
2016-05-19T10:45:13.900Z,995.15
2016-05-19T10:46:13.919Z,995.15
2016-05-19T10:47:13.953Z,995.22
2016-05-19T10:48:13.971Z,995.14
2016-05-19T10:49:13.990Z,995.17
2016-05-19T10:50:14.007Z,995.19
2016-05-19T10:51:14.041Z,995.24
2016-05-19T10:52:14.060Z,995.23
2016-05-19T10:53:14.079Z,995.25
2016-05-19T10:54:14.284Z,995.25
2016-05-19T10:55:14.131Z,995.25
2016-05-19T10:56:14.149Z,995.22
2016-05-19T10:57:14.167Z,995.25
2016-05-19T10:58:14.200Z,995.2
2016-05-19T10:59:14.220Z,995.19
2016-05-19T11:00:14.238Z,995.23
2016-05-19T11:01:14.256Z,995.19
2016-05-19T11:02:14.290Z,995.21
2016-05-19T11:03:14.308Z,995.2
2016-05-19T11:04:14.326Z,995.2
2016-05-19T11:05:14.344Z,995.21
2016-05-19T11:06:14.378Z,995.24
2016-05-19T11:07:14.381Z,995.27
2016-05-19T11:08:14.416Z,995.24
2016-05-19T11:09:14.434Z,995.2
2016-05-19T11:10:14.467Z,995.22
2016-05-19T11:11:14.485Z,995.26
2016-05-19T11:12:14.504Z,995.22
2016-05-19T11:13:14.523Z,995.24
2016-05-19T11:14:14.557Z,995.22
2016-05-19T11:15:14.575Z,995.21
2016-05-19T11:16:14.593Z,995.21
2016-05-19T11:17:14.627Z,995.19
2016-05-19T11:18:14.645Z,995.22
2016-05-19T11:19:14.663Z,995.23
2016-05-19T11:20:14.682Z,995.21
2016-05-19T11:21:14.716Z,995.17
2016-05-19T11:22:14.734Z,995.19
2016-05-19T11:23:14.752Z,995.2
2016-05-19T11:24:15.068Z,995.21
2016-05-19T11:25:14.790Z,995.23
2016-05-19T11:26:14.823Z,995.26
2016-05-19T11:27:14.842Z,995.26
2016-05-19T11:28:14.876Z,995.3
2016-05-19T11:29:14.894Z,995.31
2016-05-19T11:30:14.912Z,995.34
2016-05-19T11:31:14.931Z,995.31
2016-05-19T11:32:14.948Z,995.32
2016-05-19T11:33:14.983Z,995.38
2016-05-19T11:34:15.000Z,995.36
2016-05-19T11:35:15.019Z,995.38
2016-05-19T11:36:15.037Z,995.37
2016-05-19T11:37:15.072Z,995.41
2016-05-19T11:38:15.089Z,995.38
2016-05-19T11:39:15.124Z,995.45
2016-05-19T11:40:15.141Z,995.4
2016-05-19T11:41:15.160Z,995.45
2016-05-19T11:42:15.179Z,995.48
2016-05-19T11:43:15.197Z,995.48
2016-05-19T11:44:15.215Z,995.46
2016-05-19T11:45:15.233Z,995.49
2016-05-19T11:46:15.268Z,995.48
2016-05-19T11:47:15.340Z,995.5
2016-05-19T11:48:15.382Z,995.55
2016-05-19T11:49:15.487Z,995.49
2016-05-19T11:50:15.531Z,995.5
2016-05-19T11:51:15.620Z,995.52
2016-05-19T11:52:15.671Z,995.48
2016-05-19T11:53:15.704Z,995.48
2016-05-19T11:54:16.127Z,995.46
2016-05-19T11:55:15.738Z,995.45
2016-05-19T11:56:15.755Z,995.48
2016-05-19T11:57:15.795Z,995.48
2016-05-19T11:58:15.819Z,995.5
2016-05-19T11:59:15.843Z,995.49
2016-05-19T12:00:15.883Z,995.5
2016-05-19T12:01:15.906Z,995.42
2016-05-19T12:02:15.927Z,995.49
2016-05-19T12:03:15.962Z,995.57
2016-05-19T12:04:15.982Z,995.58
2016-05-19T12:05:16.003Z,995.56
2016-05-19T12:06:16.023Z,995.56
2016-05-19T12:07:16.057Z,995.57
2016-05-19T12:08:16.077Z,995.54
2016-05-19T12:09:16.236Z,995.58
2016-05-19T12:10:16.130Z,995.56
2016-05-19T12:11:16.150Z,995.57
2016-05-19T12:12:16.168Z,995.54
2016-05-19T12:13:16.187Z,995.57
2016-05-19T12:14:16.205Z,995.62
2016-05-19T12:15:16.287Z,995.59
2016-05-19T12:16:16.259Z,995.56
2016-05-19T12:17:16.277Z,995.61
2016-05-19T12:18:16.311Z,995.57
2016-05-19T12:19:16.330Z,995.57
2016-05-19T12:20:16.347Z,995.64
2016-05-19T12:21:16.381Z,995.6
2016-05-19T12:22:16.384Z,995.6
2016-05-19T12:23:16.418Z,995.56
2016-05-19T12:24:16.452Z,995.48
2016-05-19T12:25:16.470Z,995.56
2016-05-19T12:26:16.488Z,995.57
2016-05-19T12:27:16.507Z,995.59
2016-05-19T12:28:16.526Z,995.57
2016-05-19T12:29:16.543Z,995.57
2016-05-19T12:30:16.578Z,995.59
2016-05-19T12:31:16.596Z,995.57